sensor_id;sensor_type;location;lat;lon;timestamp;P1;durP1;ratioP1;P2;durP2;ratioP2
47892;SDS011;33650;51.064;13.756;2022-10-15T00:01:54;6.60;;;3.70;;
47892;SDS011;33650;51.064;13.756;2022-10-15T00:04:25;3.75;;;3.00;;
47892;SDS011;33650;51.064;13.756;2022-10-15T00:06:56;3.47;;;1.67;;
47892;SDS011;33650;51.064;13.756;2022-10-15T00:09:28;2.15;;;1.70;;
47892;SDS011;33650;51.064;13.756;2022-10-15T00:11:59;5.10;;;2.83;;
47892;SDS011;33650;51.064;13.756;2022-10-15T00:14:30;4.60;;;2.90;;
47892;SDS011;33650;51.064;13.756;2022-10-15T00:17:01;4.03;;;3.03;;
47892;SDS011;33650;51.064;13.756;2022-10-15T00:19:32;6.13;;;3.17;;
47892;SDS011;33650;51.064;13.756;2022-10-15T00:22:03;4.85;;;3.25;;
47892;SDS011;33650;51.064;13.756;2022-10-15T00:24:35;2.53;;;2.25;;
47892;SDS011;33650;51.064;13.756;2022-10-15T00:27:06;4.38;;;3.42;;
47892;SDS011;33650;51.064;13.756;2022-10-15T00:29:37;5.20;;;2.90;;
47892;SDS011;33650;51.064;13.756;2022-10-15T00:32:08;6.07;;;3.85;;
47892;SDS011;33650;51.064;13.756;2022-10-15T00:34:42;4.50;;;2.40;;
47892;SDS011;33650;51.064;13.756;2022-10-15T00:37:13;5.40;;;3.25;;
47892;SDS011;33650;51.064;13.756;2022-10-15T00:39:46;2.63;;;2.42;;
47892;SDS011;33650;51.064;13.756;2022-10-15T00:42:17;5.53;;;3.20;;
47892;SDS011;33650;51.064;13.756;2022-10-15T00:44:50;5.95;;;2.95;;
47892;SDS011;33650;51.064;13.756;2022-10-15T00:47:40;5.72;;;3.63;;
47892;SDS011;33650;51.064;13.756;2022-10-15T00:50:21;4.20;;;2.70;;
47892;SDS011;33650;51.064;13.756;2022-10-15T00:52:58;5.93;;;3.25;;
47892;SDS011;33650;51.064;13.756;2022-10-15T00:55:31;3.33;;;3.03;;
47892;SDS011;33650;51.064;13.756;2022-10-15T00:58:06;3.85;;;3.35;;
47892;SDS011;33650;51.064;13.756;2022-10-15T01:00:38;6.88;;;3.75;;
47892;SDS011;33650;51.064;13.756;2022-10-15T01:03:09;4.35;;;3.95;;
47892;SDS011;33650;51.064;13.756;2022-10-15T01:05:42;3.10;;;2.78;;
47892;SDS011;33650;51.064;13.756;2022-10-15T01:08:14;5.88;;;4.78;;
47892;SDS011;33650;51.064;13.756;2022-10-15T01:13:22;5.47;;;3.15;;
47892;SDS011;33650;51.064;13.756;2022-10-15T01:15:57;8.13;;;4.20;;
47892;SDS011;33650;51.064;13.756;2022-10-15T01:18:35;10.43;;;5.53;;
47892;SDS011;33650;51.064;13.756;2022-10-15T01:24:03;4.32;;;4.00;;
47892;SDS011;33650;51.064;13.756;2022-10-15T01:32:11;4.55;;;2.65;;
47892;SDS011;33650;51.064;13.756;2022-10-15T01:40:25;4.78;;;2.95;;
47892;SDS011;33650;51.064;13.756;2022-10-15T01:43:01;4.88;;;3.88;;
47892;SDS011;33650;51.064;13.756;2022-10-15T01:45:47;6.07;;;4.88;;
47892;SDS011;33650;51.064;13.756;2022-10-15T01:48:38;11.77;;;3.92;;
47892;SDS011;33650;51.064;13.756;2022-10-15T01:51:10;4.63;;;4.22;;
47892;SDS011;33650;51.064;13.756;2022-10-15T01:53:42;5.68;;;4.55;;
47892;SDS011;33650;51.064;13.756;2022-10-15T01:56:16;7.15;;;4.40;;
47892;SDS011;33650;51.064;13.756;2022-10-15T01:58:50;5.82;;;3.92;;
47892;SDS011;33650;51.064;13.756;2022-10-15T02:01:22;5.93;;;4.93;;
47892;SDS011;33650;51.064;13.756;2022-10-15T02:03:53;4.40;;;3.92;;
47892;SDS011;33650;51.064;13.756;2022-10-15T02:06:27;3.53;;;3.20;;
47892;SDS011;33650;51.064;13.756;2022-10-15T02:09:06;6.47;;;5.05;;
47892;SDS011;33650;51.064;13.756;2022-10-15T02:11:45;5.50;;;5.00;;
47892;SDS011;33650;51.064;13.756;2022-10-15T02:15:07;3.80;;;3.03;;
47892;SDS011;33650;51.064;13.756;2022-10-15T02:17:12;7.90;;;4.65;;
47892;SDS011;33650;51.064;13.756;2022-10-15T02:22:25;4.60;;;3.03;;
47892;SDS011;33650;51.064;13.756;2022-10-15T02:25:00;4.50;;;3.17;;
47892;SDS011;33650;51.064;13.756;2022-10-15T02:27:34;4.32;;;3.97;;
47892;SDS011;33650;51.064;13.756;2022-10-15T02:30:06;6.10;;;4.68;;
47892;SDS011;33650;51.064;13.756;2022-10-15T02:32:37;3.85;;;3.47;;
47892;SDS011;33650;51.064;13.756;2022-10-15T02:35:10;4.22;;;3.38;;
47892;SDS011;33650;51.064;13.756;2022-10-15T02:37:46;7.55;;;4.68;;
47892;SDS011;33650;51.064;13.756;2022-10-15T02:40:23;6.78;;;4.47;;
47892;SDS011;33650;51.064;13.756;2022-10-15T02:42:56;8.45;;;4.72;;
47892;SDS011;33650;51.064;13.756;2022-10-15T02:45:27;5.05;;;4.57;;
47892;SDS011;33650;51.064;13.756;2022-10-15T02:47:58;6.38;;;5.68;;
47892;SDS011;33650;51.064;13.756;2022-10-15T02:50:29;8.27;;;4.18;;
47892;SDS011;33650;51.064;13.756;2022-10-15T02:53:00;7.03;;;4.53;;
47892;SDS011;33650;51.064;13.756;2022-10-15T02:55:32;5.72;;;3.92;;
47892;SDS011;33650;51.064;13.756;2022-10-15T02:58:03;9.65;;;4.63;;
47892;SDS011;33650;51.064;13.756;2022-10-15T03:00:34;6.85;;;4.78;;
47892;SDS011;33650;51.064;13.756;2022-10-15T03:03:05;7.22;;;5.20;;
47892;SDS011;33650;51.064;13.756;2022-10-15T03:05:36;4.32;;;4.03;;
47892;SDS011;33650;51.064;13.756;2022-10-15T03:08:08;8.77;;;3.75;;
47892;SDS011;33650;51.064;13.756;2022-10-15T03:10:39;7.35;;;4.70;;
47892;SDS011;33650;51.064;13.756;2022-10-15T03:13:10;7.43;;;4.88;;
47892;SDS011;33650;51.064;13.756;2022-10-15T03:15:48;5.57;;;4.68;;
47892;SDS011;33650;51.064;13.756;2022-10-15T03:18:19;5.85;;;4.47;;
47892;SDS011;33650;51.064;13.756;2022-10-15T03:20:54;4.85;;;3.92;;
47892;SDS011;33650;51.064;13.756;2022-10-15T03:23:26;7.13;;;4.78;;
47892;SDS011;33650;51.064;13.756;2022-10-15T03:26:08;8.20;;;3.83;;
47892;SDS011;33650;51.064;13.756;2022-10-15T03:28:39;8.85;;;4.32;;
47892;SDS011;33650;51.064;13.756;2022-10-15T03:31:10;9.02;;;6.38;;
47892;SDS011;33650;51.064;13.756;2022-10-15T03:33:43;6.25;;;5.65;;
47892;SDS011;33650;51.064;13.756;2022-10-15T03:36:15;6.22;;;4.43;;
47892;SDS011;33650;51.064;13.756;2022-10-15T03:38:46;6.38;;;4.57;;
47892;SDS011;33650;51.064;13.756;2022-10-15T03:41:17;4.90;;;4.13;;
47892;SDS011;33650;51.064;13.756;2022-10-15T03:43:50;6.97;;;4.22;;
47892;SDS011;33650;51.064;13.756;2022-10-15T03:46:21;7.97;;;5.60;;
47892;SDS011;33650;51.064;13.756;2022-10-15T03:48:53;3.80;;;3.50;;
47892;SDS011;33650;51.064;13.756;2022-10-15T03:51:24;7.63;;;4.82;;
47892;SDS011;33650;51.064;13.756;2022-10-15T03:54:01;4.78;;;2.85;;
47892;SDS011;33650;51.064;13.756;2022-10-15T03:56:33;6.63;;;4.15;;
47892;SDS011;33650;51.064;13.756;2022-10-15T03:59:21;5.65;;;4.45;;
47892;SDS011;33650;51.064;13.756;2022-10-15T04:01:59;6.50;;;4.40;;
47892;SDS011;33650;51.064;13.756;2022-10-15T04:04:31;7.95;;;4.95;;
47892;SDS011;33650;51.064;13.756;2022-10-15T04:07:02;5.30;;;4.30;;
47892;SDS011;33650;51.064;13.756;2022-10-15T04:09:35;4.70;;;4.13;;
47892;SDS011;33650;51.064;13.756;2022-10-15T04:12:24;8.55;;;5.00;;
47892;SDS011;33650;51.064;13.756;2022-10-15T04:14:55;6.65;;;5.70;;
47892;SDS011;33650;51.064;13.756;2022-10-15T04:17:26;14.93;;;6.00;;
47892;SDS011;33650;51.064;13.756;2022-10-15T04:19:58;6.43;;;3.72;;
47892;SDS011;33650;51.064;13.756;2022-10-15T04:22:30;7.55;;;4.25;;
47892;SDS011;33650;51.064;13.756;2022-10-15T04:25:04;7.53;;;4.15;;
47892;SDS011;33650;51.064;13.756;2022-10-15T04:27:36;6.72;;;4.25;;
47892;SDS011;33650;51.064;13.756;2022-10-15T04:30:20;4.72;;;3.55;;
47892;SDS011;33650;51.064;13.756;2022-10-15T04:32:57;5.07;;;4.05;;
47892;SDS011;33650;51.064;13.756;2022-10-15T04:35:28;6.25;;;4.20;;
47892;SDS011;33650;51.064;13.756;2022-10-15T04:38:15;6.13;;;3.65;;
47892;SDS011;33650;51.064;13.756;2022-10-15T04:41:05;3.80;;;3.33;;
47892;SDS011;33650;51.064;13.756;2022-10-15T04:43:55;4.72;;;4.00;;
47892;SDS011;33650;51.064;13.756;2022-10-15T04:46:26;8.00;;;4.30;;
47892;SDS011;33650;51.064;13.756;2022-10-15T04:49:00;5.97;;;3.80;;
47892;SDS011;33650;51.064;13.756;2022-10-15T04:51:31;4.40;;;3.35;;
47892;SDS011;33650;51.064;13.756;2022-10-15T04:54:12;7.07;;;5.30;;
47892;SDS011;33650;51.064;13.756;2022-10-15T04:56:58;5.78;;;4.82;;
47892;SDS011;33650;51.064;13.756;2022-10-15T04:59:30;4.90;;;4.28;;
47892;SDS011;33650;51.064;13.756;2022-10-15T05:02:20;4.22;;;3.63;;
47892;SDS011;33650;51.064;13.756;2022-10-15T05:04:59;5.43;;;3.75;;
47892;SDS011;33650;51.064;13.756;2022-10-15T05:07:30;7.57;;;5.35;;
47892;SDS011;33650;51.064;13.756;2022-10-15T05:10:01;5.88;;;4.45;;
47892;SDS011;33650;51.064;13.756;2022-10-15T05:12:33;6.15;;;3.95;;
47892;SDS011;33650;51.064;13.756;2022-10-15T05:15:04;5.20;;;4.15;;
47892;SDS011;33650;51.064;13.756;2022-10-15T05:17:35;6.20;;;5.10;;
47892;SDS011;33650;51.064;13.756;2022-10-15T05:20:06;6.72;;;4.53;;
47892;SDS011;33650;51.064;13.756;2022-10-15T05:22:38;5.88;;;4.47;;
47892;SDS011;33650;51.064;13.756;2022-10-15T05:25:09;4.30;;;3.97;;
47892;SDS011;33650;51.064;13.756;2022-10-15T05:27:41;4.75;;;4.40;;
47892;SDS011;33650;51.064;13.756;2022-10-15T05:30:12;5.88;;;5.28;;
47892;SDS011;33650;51.064;13.756;2022-10-15T05:32:54;7.65;;;4.05;;
47892;SDS011;33650;51.064;13.756;2022-10-15T05:35:26;4.07;;;3.47;;
47892;SDS011;33650;51.064;13.756;2022-10-15T05:38:07;4.00;;;3.33;;
47892;SDS011;33650;51.064;13.756;2022-10-15T05:40:38;6.45;;;5.68;;
47892;SDS011;33650;51.064;13.756;2022-10-15T05:43:22;7.82;;;5.18;;
47892;SDS011;33650;51.064;13.756;2022-10-15T05:45:53;5.72;;;3.33;;
47892;SDS011;33650;51.064;13.756;2022-10-15T05:48:25;5.63;;;5.00;;
47892;SDS011;33650;51.064;13.756;2022-10-15T05:51:02;4.00;;;3.67;;
47892;SDS011;33650;51.064;13.756;2022-10-15T05:53:33;6.25;;;3.47;;
47892;SDS011;33650;51.064;13.756;2022-10-15T05:56:10;4.45;;;3.72;;
47892;SDS011;33650;51.064;13.756;2022-10-15T05:58:41;3.50;;;3.20;;
47892;SDS011;33650;51.064;13.756;2022-10-15T06:01:13;4.82;;;4.00;;
47892;SDS011;33650;51.064;13.756;2022-10-15T06:03:45;4.30;;;3.38;;
47892;SDS011;33650;51.064;13.756;2022-10-15T06:06:18;3.85;;;3.50;;
47892;SDS011;33650;51.064;13.756;2022-10-15T06:08:49;6.85;;;3.88;;
47892;SDS011;33650;51.064;13.756;2022-10-15T06:11:21;3.90;;;3.60;;
47892;SDS011;33650;51.064;13.756;2022-10-15T06:13:52;4.22;;;2.97;;
47892;SDS011;33650;51.064;13.756;2022-10-15T06:16:23;4.57;;;3.50;;
47892;SDS011;33650;51.064;13.756;2022-10-15T06:18:54;6.15;;;3.30;;
47892;SDS011;33650;51.064;13.756;2022-10-15T06:21:25;3.60;;;3.17;;
47892;SDS011;33650;51.064;13.756;2022-10-15T06:23:56;5.93;;;5.32;;
47892;SDS011;33650;51.064;13.756;2022-10-15T06:26:27;3.92;;;2.95;;
47892;SDS011;33650;51.064;13.756;2022-10-15T06:28:58;5.25;;;4.22;;
47892;SDS011;33650;51.064;13.756;2022-10-15T06:31:29;2.67;;;2.47;;
47892;SDS011;33650;51.064;13.756;2022-10-15T06:34:00;5.68;;;3.08;;
47892;SDS011;33650;51.064;13.756;2022-10-15T06:36:31;5.97;;;3.22;;
47892;SDS011;33650;51.064;13.756;2022-10-15T06:39:02;4.65;;;3.03;;
47892;SDS011;33650;51.064;13.756;2022-10-15T06:41:33;3.00;;;2.38;;
47892;SDS011;33650;51.064;13.756;2022-10-15T06:44:04;3.28;;;2.97;;
47892;SDS011;33650;51.064;13.756;2022-10-15T06:46:35;3.00;;;2.80;;
47892;SDS011;33650;51.064;13.756;2022-10-15T06:49:06;5.05;;;3.58;;
47892;SDS011;33650;51.064;13.756;2022-10-15T06:51:38;3.75;;;2.58;;
47892;SDS011;33650;51.064;13.756;2022-10-15T06:54:09;4.97;;;2.05;;
47892;SDS011;33650;51.064;13.756;2022-10-15T06:56:40;5.05;;;3.28;;
47892;SDS011;33650;51.064;13.756;2022-10-15T06:59:11;3.25;;;2.42;;
47892;SDS011;33650;51.064;13.756;2022-10-15T07:01:42;3.45;;;3.25;;
47892;SDS011;33650;51.064;13.756;2022-10-15T07:04:13;4.53;;;2.40;;
47892;SDS011;33650;51.064;13.756;2022-10-15T07:06:44;3.10;;;2.60;;
47892;SDS011;33650;51.064;13.756;2022-10-15T07:09:15;5.13;;;2.53;;
47892;SDS011;33650;51.064;13.756;2022-10-15T07:11:46;4.55;;;2.65;;
47892;SDS011;33650;51.064;13.756;2022-10-15T07:14:17;3.30;;;3.00;;
47892;SDS011;33650;51.064;13.756;2022-10-15T07:16:48;4.45;;;3.00;;
47892;SDS011;33650;51.064;13.756;2022-10-15T07:19:19;3.10;;;2.55;;
47892;SDS011;33650;51.064;13.756;2022-10-15T07:21:52;2.45;;;1.95;;
47892;SDS011;33650;51.064;13.756;2022-10-15T07:24:24;4.32;;;2.85;;
47892;SDS011;33650;51.064;13.756;2022-10-15T07:26:55;3.88;;;3.55;;
47892;SDS011;33650;51.064;13.756;2022-10-15T07:29:26;1.88;;;1.55;;
47892;SDS011;33650;51.064;13.756;2022-10-15T07:31:57;1.60;;;1.50;;
47892;SDS011;33650;51.064;13.756;2022-10-15T07:34:28;2.72;;;2.03;;
47892;SDS011;33650;51.064;13.756;2022-10-15T07:36:59;1.73;;;1.50;;
47892;SDS011;33650;51.064;13.756;2022-10-15T07:39:30;3.30;;;2.15;;
47892;SDS011;33650;51.064;13.756;2022-10-15T07:42:01;4.05;;;2.75;;
47892;SDS011;33650;51.064;13.756;2022-10-15T07:44:32;1.75;;;1.48;;
47892;SDS011;33650;51.064;13.756;2022-10-15T07:47:03;1.30;;;0.93;;
47892;SDS011;33650;51.064;13.756;2022-10-15T07:49:34;1.65;;;1.13;;
47892;SDS011;33650;51.064;13.756;2022-10-15T07:52:05;1.73;;;1.50;;
47892;SDS011;33650;51.064;13.756;2022-10-15T07:54:37;1.98;;;1.17;;
47892;SDS011;33650;51.064;13.756;2022-10-15T07:57:08;2.10;;;1.67;;
47892;SDS011;33650;51.064;13.756;2022-10-15T07:59:39;2.80;;;1.95;;
47892;SDS011;33650;51.064;13.756;2022-10-15T08:02:14;1.77;;;1.42;;
47892;SDS011;33650;51.064;13.756;2022-10-15T08:04:45;1.17;;;1.02;;
47892;SDS011;33650;51.064;13.756;2022-10-15T08:07:16;1.20;;;0.98;;
47892;SDS011;33650;51.064;13.756;2022-10-15T08:09:47;2.60;;;1.75;;
47892;SDS011;33650;51.064;13.756;2022-10-15T08:12:18;1.33;;;1.23;;
47892;SDS011;33650;51.064;13.756;2022-10-15T08:14:49;1.38;;;0.90;;
47892;SDS011;33650;51.064;13.756;2022-10-15T08:17:21;0.77;;;0.77;;
47892;SDS011;33650;51.064;13.756;2022-10-15T08:19:52;1.40;;;1.30;;
47892;SDS011;33650;51.064;13.756;2022-10-15T08:22:24;1.40;;;1.30;;
47892;SDS011;33650;51.064;13.756;2022-10-15T08:24:59;2.22;;;1.55;;
47892;SDS011;33650;51.064;13.756;2022-10-15T08:27:30;0.98;;;0.95;;
47892;SDS011;33650;51.064;13.756;2022-10-15T08:30:01;1.50;;;1.40;;
47892;SDS011;33650;51.064;13.756;2022-10-15T08:32:32;1.80;;;1.08;;
47892;SDS011;33650;51.064;13.756;2022-10-15T08:35:03;1.70;;;1.17;;
47892;SDS011;33650;51.064;13.756;2022-10-15T08:37:35;1.27;;;1.13;;
47892;SDS011;33650;51.064;13.756;2022-10-15T08:40:08;1.95;;;1.35;;
47892;SDS011;33650;51.064;13.756;2022-10-15T08:42:40;1.48;;;1.38;;
47892;SDS011;33650;51.064;13.756;2022-10-15T08:45:16;1.25;;;0.90;;
47892;SDS011;33650;51.064;13.756;2022-10-15T08:47:49;2.50;;;1.30;;
47892;SDS011;33650;51.064;13.756;2022-10-15T08:53:13;1.38;;;1.13;;
47892;SDS011;33650;51.064;13.756;2022-10-15T08:55:47;0.60;;;0.60;;
47892;SDS011;33650;51.064;13.756;2022-10-15T08:58:19;1.20;;;0.95;;
47892;SDS011;33650;51.064;13.756;2022-10-15T09:00:57;1.58;;;0.90;;
47892;SDS011;33650;51.064;13.756;2022-10-15T09:03:35;1.05;;;0.90;;
47892;SDS011;33650;51.064;13.756;2022-10-15T09:06:53;1.10;;;0.85;;
47892;SDS011;33650;51.064;13.756;2022-10-15T09:09:01;1.10;;;0.80;;
47892;SDS011;33650;51.064;13.756;2022-10-15T09:14:28;1.27;;;1.17;;
47892;SDS011;33650;51.064;13.756;2022-10-15T09:17:03;1.70;;;0.82;;
47892;SDS011;33650;51.064;13.756;2022-10-15T09:19:34;0.80;;;0.70;;
47892;SDS011;33650;51.064;13.756;2022-10-15T09:22:11;0.93;;;0.80;;
47892;SDS011;33650;51.064;13.756;2022-10-15T09:24:43;1.05;;;0.65;;
47892;SDS011;33650;51.064;13.756;2022-10-15T09:27:21;0.50;;;0.50;;
47892;SDS011;33650;51.064;13.756;2022-10-15T09:30:03;0.93;;;0.88;;
47892;SDS011;33650;51.064;13.756;2022-10-15T09:32:36;0.90;;;0.63;;
47892;SDS011;33650;51.064;13.756;2022-10-15T09:35:12;0.50;;;0.50;;
47892;SDS011;33650;51.064;13.756;2022-10-15T09:38:34;0.90;;;0.90;;
47892;SDS011;33650;51.064;13.756;2022-10-15T09:40:59;0.80;;;0.80;;
47892;SDS011;33650;51.064;13.756;2022-10-15T09:43:36;1.35;;;1.25;;
47892;SDS011;33650;51.064;13.756;2022-10-15T09:46:09;2.00;;;1.33;;
47892;SDS011;33650;51.064;13.756;2022-10-15T09:57:20;0.75;;;0.75;;
47892;SDS011;33650;51.064;13.756;2022-10-15T09:59:53;2.08;;;1.67;;
47892;SDS011;33650;51.064;13.756;2022-10-15T10:02:24;2.22;;;0.90;;
47892;SDS011;33650;51.064;13.756;2022-10-15T10:04:55;1.52;;;1.00;;
47892;SDS011;33650;51.064;13.756;2022-10-15T10:12:34;0.93;;;0.88;;
47892;SDS011;33650;51.064;13.756;2022-10-15T10:17:52;0.93;;;0.93;;
47892;SDS011;33650;51.064;13.756;2022-10-15T10:20:32;0.60;;;0.55;;
47892;SDS011;33650;51.064;13.756;2022-10-15T10:23:19;4.03;;;1.60;;
47892;SDS011;33650;51.064;13.756;2022-10-15T10:25:51;1.15;;;1.02;;
47892;SDS011;33650;51.064;13.756;2022-10-15T10:31:14;2.63;;;1.40;;
47892;SDS011;33650;51.064;13.756;2022-10-15T10:33:48;1.10;;;1.00;;
47892;SDS011;33650;51.064;13.756;2022-10-15T10:39:10;0.88;;;0.85;;
47892;SDS011;33650;51.064;13.756;2022-10-15T10:44:30;3.13;;;1.48;;
47892;SDS011;33650;51.064;13.756;2022-10-15T10:49:46;0.93;;;0.73;;
47892;SDS011;33650;51.064;13.756;2022-10-15T10:52:28;1.23;;;0.77;;
47892;SDS011;33650;51.064;13.756;2022-10-15T10:55:00;2.78;;;0.98;;
47892;SDS011;33650;51.064;13.756;2022-10-15T11:05:42;1.33;;;0.95;;
47892;SDS011;33650;51.064;13.756;2022-10-15T11:08:23;1.23;;;1.17;;
47892;SDS011;33650;51.064;13.756;2022-10-15T11:16:32;2.67;;;1.48;;
47892;SDS011;33650;51.064;13.756;2022-10-15T11:24:28;1.25;;;0.70;;
47892;SDS011;33650;51.064;13.756;2022-10-15T11:27:27;1.77;;;1.08;;
47892;SDS011;33650;51.064;13.756;2022-10-15T11:32:53;1.48;;;0.77;;
47892;SDS011;33650;51.064;13.756;2022-10-15T11:38:11;1.88;;;1.77;;
47892;SDS011;33650;51.064;13.756;2022-10-15T11:49:05;0.60;;;0.60;;
47892;SDS011;33650;51.064;13.756;2022-10-15T11:54:30;0.65;;;0.65;;
47892;SDS011;33650;51.064;13.756;2022-10-15T11:57:06;0.95;;;0.73;;
47892;SDS011;33650;51.064;13.756;2022-10-15T12:02:19;1.33;;;1.02;;
47892;SDS011;33650;51.064;13.756;2022-10-15T12:04:53;1.50;;;1.40;;
47892;SDS011;33650;51.064;13.756;2022-10-15T12:07:27;1.00;;;0.95;;
47892;SDS011;33650;51.064;13.756;2022-10-15T12:10:04;1.02;;;1.02;;
47892;SDS011;33650;51.064;13.756;2022-10-15T12:18:01;0.75;;;0.75;;
47892;SDS011;33650;51.064;13.756;2022-10-15T12:20:33;1.58;;;1.48;;
47892;SDS011;33650;51.064;13.756;2022-10-15T12:23:05;3.83;;;1.75;;
47892;SDS011;33650;51.064;13.756;2022-10-15T12:30:38;2.75;;;0.80;;
47892;SDS011;33650;51.064;13.756;2022-10-15T12:33:44;0.85;;;0.75;;
47892;SDS011;33650;51.064;13.756;2022-10-15T12:36:19;0.90;;;0.77;;
47892;SDS011;33650;51.064;13.756;2022-10-15T12:39:04;0.85;;;0.80;;
47892;SDS011;33650;51.064;13.756;2022-10-15T12:44:10;0.82;;;0.70;;
47892;SDS011;33650;51.064;13.756;2022-10-15T12:46:44;1.00;;;0.60;;
47892;SDS011;33650;51.064;13.756;2022-10-15T12:51:56;1.63;;;0.90;;
47892;SDS011;33650;51.064;13.756;2022-10-15T12:54:36;0.80;;;0.80;;
47892;SDS011;33650;51.064;13.756;2022-10-15T13:02:49;1.42;;;1.33;;
47892;SDS011;33650;51.064;13.756;2022-10-15T13:05:23;2.45;;;1.00;;
47892;SDS011;33650;51.064;13.756;2022-10-15T13:07:55;1.45;;;1.35;;
47892;SDS011;33650;51.064;13.756;2022-10-15T13:10:37;1.17;;;0.95;;
47892;SDS011;33650;51.064;13.756;2022-10-15T13:13:17;2.03;;;1.27;;
47892;SDS011;33650;51.064;13.756;2022-10-15T13:15:49;1.20;;;1.10;;
47892;SDS011;33650;51.064;13.756;2022-10-15T13:18:20;0.80;;;0.80;;
47892;SDS011;33650;51.064;13.756;2022-10-15T13:20:52;1.10;;;0.63;;
47892;SDS011;33650;51.064;13.756;2022-10-15T13:23:26;1.35;;;0.75;;
47892;SDS011;33650;51.064;13.756;2022-10-15T13:26:11;0.88;;;0.88;;
47892;SDS011;33650;51.064;13.756;2022-10-15T13:28:43;0.57;;;0.55;;
47892;SDS011;33650;51.064;13.756;2022-10-15T13:31:17;0.70;;;0.68;;
47892;SDS011;33650;51.064;13.756;2022-10-15T13:33:53;0.57;;;0.57;;
47892;SDS011;33650;51.064;13.756;2022-10-15T13:36:25;5.13;;;1.08;;
47892;SDS011;33650;51.064;13.756;2022-10-15T13:39:02;0.30;;;0.30;;
47892;SDS011;33650;51.064;13.756;2022-10-15T13:41:35;2.00;;;0.60;;
47892;SDS011;33650;51.064;13.756;2022-10-15T13:44:17;1.67;;;0.75;;
47892;SDS011;33650;51.064;13.756;2022-10-15T13:46:49;0.85;;;0.85;;
47892;SDS011;33650;51.064;13.756;2022-10-15T13:49:20;0.68;;;0.68;;
47892;SDS011;33650;51.064;13.756;2022-10-15T13:51:52;0.25;;;0.20;;
47892;SDS011;33650;51.064;13.756;2022-10-15T13:54:24;0.13;;;0.13;;
47892;SDS011;33650;51.064;13.756;2022-10-15T13:56:58;0.28;;;0.20;;
47892;SDS011;33650;51.064;13.756;2022-10-15T13:59:31;0.43;;;0.43;;
47892;SDS011;33650;51.064;13.756;2022-10-15T14:02:02;0.20;;;0.20;;
47892;SDS011;33650;51.064;13.756;2022-10-15T14:04:33;0.20;;;0.20;;
47892;SDS011;33650;51.064;13.756;2022-10-15T14:07:19;0.22;;;0.22;;
47892;SDS011;33650;51.064;13.756;2022-10-15T14:09:52;0.22;;;0.22;;
47892;SDS011;33650;51.064;13.756;2022-10-15T14:12:23;0.47;;;0.47;;
47892;SDS011;33650;51.064;13.756;2022-10-15T14:14:54;1.27;;;1.17;;
47892;SDS011;33650;51.064;13.756;2022-10-15T14:17:25;0.70;;;0.70;;
47892;SDS011;33650;51.064;13.756;2022-10-15T14:19:58;1.50;;;1.15;;
47892;SDS011;33650;51.064;13.756;2022-10-15T14:22:30;1.20;;;0.85;;
47892;SDS011;33650;51.064;13.756;2022-10-15T14:25:01;0.63;;;0.63;;
47892;SDS011;33650;51.064;13.756;2022-10-15T14:27:38;1.38;;;1.10;;
47892;SDS011;33650;51.064;13.756;2022-10-15T14:30:19;1.35;;;0.93;;
47892;SDS011;33650;51.064;13.756;2022-10-15T14:32:51;1.65;;;1.25;;
47892;SDS011;33650;51.064;13.756;2022-10-15T14:35:27;1.02;;;0.90;;
47892;SDS011;33650;51.064;13.756;2022-10-15T14:37:59;1.10;;;0.95;;
47892;SDS011;33650;51.064;13.756;2022-10-15T14:40:31;1.08;;;1.08;;
47892;SDS011;33650;51.064;13.756;2022-10-15T14:45:39;1.40;;;1.02;;
47892;SDS011;33650;51.064;13.756;2022-10-15T14:48:15;2.42;;;1.00;;
47892;SDS011;33650;51.064;13.756;2022-10-15T14:50:48;0.98;;;0.80;;
47892;SDS011;33650;51.064;13.756;2022-10-15T14:53:20;1.58;;;1.45;;
47892;SDS011;33650;51.064;13.756;2022-10-15T14:55:55;1.27;;;1.17;;
47892;SDS011;33650;51.064;13.756;2022-10-15T14:58:27;1.58;;;1.33;;
47892;SDS011;33650;51.064;13.756;2022-10-15T15:01:00;2.85;;;2.45;;
47892;SDS011;33650;51.064;13.756;2022-10-15T15:03:41;1.77;;;1.20;;
47892;SDS011;33650;51.064;13.756;2022-10-15T15:06:13;1.33;;;1.23;;
47892;SDS011;33650;51.064;13.756;2022-10-15T15:08:44;1.58;;;1.30;;
47892;SDS011;33650;51.064;13.756;2022-10-15T15:11:19;1.40;;;0.90;;
47892;SDS011;33650;51.064;13.756;2022-10-15T15:13:51;3.05;;;1.77;;
47892;SDS011;33650;51.064;13.756;2022-10-15T15:16:22;1.63;;;1.52;;
47892;SDS011;33650;51.064;13.756;2022-10-15T15:18:53;1.58;;;1.20;;
47892;SDS011;33650;51.064;13.756;2022-10-15T15:21:26;0.82;;;0.82;;
47892;SDS011;33650;51.064;13.756;2022-10-15T15:23:57;0.65;;;0.65;;
47892;SDS011;33650;51.064;13.756;2022-10-15T15:26:30;0.80;;;0.80;;
47892;SDS011;33650;51.064;13.756;2022-10-15T15:29:01;2.25;;;1.52;;
47892;SDS011;33650;51.064;13.756;2022-10-15T15:31:32;3.25;;;2.33;;
47892;SDS011;33650;51.064;13.756;2022-10-15T15:34:03;3.50;;;2.88;;
47892;SDS011;33650;51.064;13.756;2022-10-15T15:36:34;8.23;;;3.33;;
47892;SDS011;33650;51.064;13.756;2022-10-15T15:39:05;1.85;;;1.45;;
47892;SDS011;33650;51.064;13.756;2022-10-15T15:41:36;1.75;;;1.58;;
47892;SDS011;33650;51.064;13.756;2022-10-15T15:44:10;2.30;;;1.13;;
47892;SDS011;33650;51.064;13.756;2022-10-15T15:46:41;2.13;;;1.52;;
47892;SDS011;33650;51.064;13.756;2022-10-15T15:49:12;1.70;;;1.45;;
47892;SDS011;33650;51.064;13.756;2022-10-15T15:51:43;2.03;;;1.80;;
47892;SDS011;33650;51.064;13.756;2022-10-15T15:54:14;2.38;;;2.17;;
47892;SDS011;33650;51.064;13.756;2022-10-15T15:56:45;2.70;;;1.30;;
47892;SDS011;33650;51.064;13.756;2022-10-15T15:59:16;3.83;;;1.45;;
47892;SDS011;33650;51.064;13.756;2022-10-15T16:01:48;3.70;;;1.70;;
47892;SDS011;33650;51.064;13.756;2022-10-15T16:04:20;1.05;;;0.98;;
47892;SDS011;33650;51.064;13.756;2022-10-15T16:06:51;2.17;;;1.77;;
47892;SDS011;33650;51.064;13.756;2022-10-15T16:09:22;1.38;;;1.23;;
47892;SDS011;33650;51.064;13.756;2022-10-15T16:11:53;3.17;;;1.52;;
47892;SDS011;33650;51.064;13.756;2022-10-15T16:14:26;3.65;;;3.30;;
47892;SDS011;33650;51.064;13.756;2022-10-15T16:16:57;2.97;;;1.85;;
47892;SDS011;33650;51.064;13.756;2022-10-15T16:19:28;7.45;;;4.25;;
47892;SDS011;33650;51.064;13.756;2022-10-15T16:21:59;4.85;;;2.85;;
47892;SDS011;33650;51.064;13.756;2022-10-15T16:24:30;6.88;;;4.22;;
47892;SDS011;33650;51.064;13.756;2022-10-15T16:27:01;3.28;;;1.92;;
47892;SDS011;33650;51.064;13.756;2022-10-15T16:29:32;2.90;;;2.70;;
47892;SDS011;33650;51.064;13.756;2022-10-15T16:32:04;8.57;;;2.50;;
47892;SDS011;33650;51.064;13.756;2022-10-15T16:34:35;4.57;;;3.70;;
47892;SDS011;33650;51.064;13.756;2022-10-15T16:37:06;3.33;;;2.47;;
47892;SDS011;33650;51.064;13.756;2022-10-15T16:39:37;9.40;;;6.55;;
47892;SDS011;33650;51.064;13.756;2022-10-15T16:42:08;11.05;;;5.93;;
47892;SDS011;33650;51.064;13.756;2022-10-15T16:44:39;10.50;;;8.85;;
47892;SDS011;33650;51.064;13.756;2022-10-15T16:47:10;6.03;;;4.65;;
47892;SDS011;33650;51.064;13.756;2022-10-15T16:49:42;3.00;;;2.70;;
47892;SDS011;33650;51.064;13.756;2022-10-15T16:52:13;3.83;;;2.40;;
47892;SDS011;33650;51.064;13.756;2022-10-15T16:54:45;5.97;;;3.95;;
47892;SDS011;33650;51.064;13.756;2022-10-15T16:57:16;3.47;;;2.65;;
47892;SDS011;33650;51.064;13.756;2022-10-15T16:59:47;3.58;;;1.63;;
47892;SDS011;33650;51.064;13.756;2022-10-15T17:02:18;2.47;;;1.52;;
47892;SDS011;33650;51.064;13.756;2022-10-15T17:04:49;2.08;;;1.88;;
47892;SDS011;33650;51.064;13.756;2022-10-15T17:07:20;2.53;;;2.05;;